createdAt,value
2018-05-12T00:01:31.328Z,79.00
2018-05-12T00:03:57.606Z,79.10
2018-05-12T00:06:30.264Z,79.20
2018-05-12T00:08:56.534Z,79.20
2018-05-12T00:11:22.613Z,79.00
2018-05-12T00:13:49.439Z,79.10
2018-05-12T00:16:16.402Z,80.00
2018-05-12T00:18:46.971Z,79.20
2018-05-12T00:21:14.085Z,79.00
2018-05-12T00:23:40.886Z,80.40
2018-05-12T00:26:07.096Z,81.40
2018-05-12T00:28:38.604Z,79.70
2018-05-12T00:31:06.811Z,80.40
2018-05-12T00:33:33.004Z,80.10
2018-05-12T00:36:01.205Z,80.40
2018-05-12T00:38:27.316Z,80.20
2018-05-12T00:40:53.480Z,80.10
2018-05-12T00:43:20.509Z,80.20
2018-05-12T00:45:50.285Z,80.40
2018-05-12T00:48:18.099Z,80.50
2018-05-12T00:50:45.175Z,80.50
2018-05-12T00:53:13.204Z,81.20
2018-05-12T00:55:39.433Z,81.30
2018-05-12T00:58:05.511Z,81.20
2018-05-12T01:00:33.388Z,81.30
2018-05-12T01:03:00.248Z,81.30
2018-05-12T01:05:26.356Z,81.20
2018-05-12T01:07:53.317Z,81.10
2018-05-12T01:10:20.191Z,81.70
2018-05-12T01:12:46.426Z,81.60
2018-05-12T01:15:14.536Z,81.20
2018-05-12T01:17:40.617Z,81.40
2018-05-12T01:20:06.747Z,81.40
2018-05-12T01:22:32.834Z,83.00
2018-05-12T01:25:02.989Z,82.60
2018-05-12T01:27:29.106Z,82.50
2018-05-12T01:29:55.142Z,82.50
2018-05-12T01:32:21.281Z,83.00
2018-05-12T01:34:47.345Z,82.40
2018-05-12T01:37:14.227Z,82.90
2018-05-12T01:39:40.290Z,82.70
2018-05-12T01:42:06.369Z,83.10
2018-05-12T01:44:33.518Z,83.60
2018-05-12T01:46:59.697Z,83.80
2018-05-12T01:49:25.879Z,82.90
2018-05-12T01:51:51.978Z,83.30
2018-05-12T01:54:22.243Z,83.70
2018-05-12T01:56:48.341Z,83.60
2018-05-12T01:59:14.505Z,84.10
2018-05-12T02:01:42.593Z,84.40
2018-05-12T02:04:08.707Z,83.90
2018-05-12T02:06:34.833Z,84.10
2018-05-12T02:09:01.999Z,83.60
2018-05-12T02:11:30.424Z,84.10
2018-05-12T02:13:56.500Z,84.40
2018-05-12T02:16:22.551Z,84.10
2018-05-12T02:18:48.725Z,84.90
2018-05-12T02:21:14.835Z,84.70
2018-05-12T02:23:45.347Z,85.00
2018-05-12T02:26:12.260Z,84.20
2018-05-12T02:28:39.194Z,85.10
2018-05-12T02:31:05.301Z,85.10
2018-05-12T02:33:32.470Z,84.70
2018-05-12T02:35:58.486Z,84.60
2018-05-12T02:38:24.572Z,85.20
2018-05-12T02:40:53.317Z,86.00
2018-05-12T02:43:21.497Z,86.00
2018-05-12T02:45:47.648Z,86.00
2018-05-12T02:48:14.557Z,85.40
2018-05-12T02:50:40.622Z,85.30
2018-05-12T02:53:08.896Z,86.70
2018-05-12T02:55:35.774Z,85.90
2018-05-12T02:58:07.954Z,85.90
2018-05-12T03:00:34.764Z,87.00
2018-05-12T03:03:00.882Z,86.90
2018-05-12T03:05:35.344Z,86.60
2018-05-12T03:08:02.156Z,87.60
2018-05-12T03:10:29.996Z,87.50
2018-05-12T03:12:57.067Z,87.50
2018-05-12T03:15:23.343Z,87.70
2018-05-12T03:17:50.533Z,88.80
2018-05-12T03:20:17.341Z,87.10
2018-05-12T03:22:44.425Z,87.40
2018-05-12T03:25:11.229Z,88.50
2018-05-12T03:27:37.322Z,87.80
2018-05-12T03:30:03.386Z,87.80
2018-05-12T03:32:30.501Z,87.90
2018-05-12T03:34:56.588Z,88.90
2018-05-12T03:37:23.672Z,89.90
2018-05-12T03:39:49.723Z,88.80
2018-05-12T03:42:16.773Z,90.00
2018-05-12T03:44:43.829Z,89.20
2018-05-12T03:47:09.936Z,90.40
2018-05-12T03:49:35.993Z,89.70
2018-05-12T03:52:03.131Z,90.60
2018-05-12T03:54:29.215Z,90.50
2018-05-12T03:56:59.036Z,90.30
2018-05-12T03:59:25.085Z,90.30
2018-05-12T04:01:52.166Z,90.90
2018-05-12T04:04:31.544Z,90.80
2018-05-12T04:07:10.179Z,90.90
2018-05-12T04:09:49.643Z,91.00
2018-05-12T04:12:29.247Z,91.10
2018-05-12T04:14:55.294Z,91.30
2018-05-12T04:17:22.440Z,91.00
2018-05-12T04:19:48.623Z,91.30
2018-05-12T04:22:16.577Z,91.60
2018-05-12T04:24:42.645Z,91.50
2018-05-12T04:27:08.723Z,92.00
2018-05-12T04:29:34.772Z,91.80
2018-05-12T04:32:00.923Z,92.30
2018-05-12T04:34:26.959Z,92.10
2018-05-12T04:36:53.004Z,91.70
2018-05-12T04:39:19.078Z,92.40
2018-05-12T04:41:45.238Z,92.00
2018-05-12T04:44:12.285Z,92.00
2018-05-12T04:46:38.348Z,92.70
2018-05-12T04:49:04.496Z,91.90
2018-05-12T04:51:31.411Z,92.00
2018-05-12T04:54:01.004Z,91.90
2018-05-12T04:56:27.076Z,91.80
2018-05-12T04:58:56.177Z,92.60
2018-05-12T05:01:23.004Z,92.90
2018-05-12T05:03:49.797Z,92.80
2018-05-12T05:06:15.885Z,93.20
2018-05-12T05:08:42.675Z,92.40
2018-05-12T05:11:08.753Z,92.40
2018-05-12T05:13:35.565Z,92.70
2018-05-12T05:16:01.657Z,92.50
2018-05-12T05:18:28.803Z,92.90
2018-05-12T05:20:54.957Z,93.10
2018-05-12T05:23:21.013Z,93.10
2018-05-12T05:25:49.811Z,92.40
2018-05-12T05:28:16.608Z,92.30
2018-05-12T05:30:42.803Z,92.30
2018-05-12T05:33:09.057Z,92.00
2018-05-12T05:35:36.110Z,91.80
2018-05-12T05:38:02.161Z,92.30
2018-05-12T05:40:28.235Z,92.20
2018-05-12T05:42:54.269Z,92.20
2018-05-12T05:45:20.336Z,91.90
2018-05-12T05:47:46.500Z,91.90
2018-05-12T05:50:12.691Z,92.40
2018-05-12T05:52:38.672Z,92.40
2018-05-12T05:55:04.923Z,91.80
2018-05-12T05:57:30.996Z,92.40
2018-05-12T06:00:00.815Z,92.70
2018-05-12T06:02:27.600Z,92.70
2018-05-12T06:04:53.641Z,92.80
2018-05-12T06:07:19.822Z,92.70
2018-05-12T06:09:45.868Z,93.00
2018-05-12T06:12:11.978Z,93.20
2018-05-12T06:14:38.092Z,93.50
2018-05-12T06:17:07.251Z,93.00
2018-05-12T06:19:33.545Z,93.10
2018-05-12T06:22:00.683Z,93.20
2018-05-12T06:24:28.768Z,93.20
2018-05-12T06:26:54.852Z,93.00
2018-05-12T06:29:20.933Z,93.30
2018-05-12T06:31:48.112Z,92.50
2018-05-12T06:34:15.107Z,93.00
2018-05-12T06:36:41.191Z,92.80
2018-05-12T06:39:10.141Z,91.90
2018-05-12T06:41:37.251Z,92.00
2018-05-12T06:44:03.451Z,92.60
2018-05-12T06:46:29.614Z,91.90
2018-05-12T06:48:56.693Z,90.70
2018-05-12T06:51:22.804Z,91.20
2018-05-12T06:53:49.912Z,91.50
2018-05-12T06:56:20.871Z,90.90
2018-05-12T06:58:47.959Z,91.10
2018-05-12T07:01:14.999Z,91.10
2018-05-12T07:03:43.226Z,90.00
2018-05-12T07:06:09.305Z,90.20
2018-05-12T07:08:36.369Z,89.80
2018-05-12T07:11:02.545Z,88.70
2018-05-12T07:13:28.735Z,89.90
2018-05-12T07:15:56.824Z,89.30
2018-05-12T07:18:24.676Z,88.80
2018-05-12T07:20:52.067Z,88.60
2018-05-12T07:23:18.204Z,87.40
2018-05-12T07:25:45.718Z,88.50
2018-05-12T07:28:11.889Z,87.20
2018-05-12T07:30:38.046Z,85.20
2018-05-12T07:33:04.221Z,86.40
2018-05-12T07:35:31.370Z,84.20
2018-05-12T07:38:04.506Z,84.20
2018-05-12T07:40:37.000Z,84.10
2018-05-12T07:43:03.062Z,83.40
2018-05-12T07:45:31.002Z,83.10
2018-05-12T07:47:59.139Z,83.00
2018-05-12T07:50:26.226Z,83.20
2018-05-12T07:52:52.397Z,82.80
2018-05-12T07:55:19.714Z,83.60
2018-05-12T07:57:45.915Z,82.70
2018-05-12T08:00:12.004Z,81.70
2018-05-12T08:02:43.885Z,81.70
2018-05-12T08:05:09.996Z,82.80
2018-05-12T08:07:36.049Z,80.80
2018-05-12T08:10:08.408Z,79.20
2018-05-12T08:12:35.566Z,79.00
2018-05-12T08:15:02.434Z,77.20
2018-05-12T08:17:28.653Z,77.10
2018-05-12T08:19:54.703Z,76.80
2018-05-12T08:22:21.503Z,66.90
2018-05-12T08:24:47.618Z,66.70
2018-05-12T08:27:13.736Z,65.20
2018-05-12T08:29:39.820Z,64.00
2018-05-12T08:32:10.804Z,60.10
2018-05-12T08:34:36.932Z,60.10
2018-05-12T08:37:03.080Z,60.10
2018-05-12T08:39:29.218Z,58.80
2018-05-12T08:41:58.665Z,59.50
2018-05-12T08:44:24.726Z,57.50
2018-05-12T08:46:50.856Z,57.20
2018-05-12T08:49:16.928Z,56.80
2018-05-12T08:51:46.249Z,55.20
2018-05-12T08:54:14.107Z,56.30
2018-05-12T08:56:40.879Z,54.40
2018-05-12T08:59:10.557Z,54.40
2018-05-12T09:01:37.333Z,56.60
2018-05-12T09:04:03.452Z,56.50
2018-05-12T09:06:30.532Z,55.80
2018-05-12T09:08:56.590Z,54.80
2018-05-12T09:11:23.441Z,54.60
2018-05-12T09:13:52.405Z,54.60
2018-05-12T09:16:18.585Z,54.50
2018-05-12T09:18:45.664Z,56.80
2018-05-12T09:21:12.743Z,56.00
2018-05-12T09:23:38.829Z,57.40
2018-05-12T09:26:04.985Z,58.30
2018-05-12T09:28:32.143Z,57.90
2018-05-12T09:30:58.308Z,56.20
2018-05-12T09:33:27.319Z,53.90
2018-05-12T09:35:53.463Z,54.50
2018-05-12T09:38:20.607Z,54.20
2018-05-12T09:40:46.728Z,53.90
2018-05-12T09:43:12.887Z,56.00
2018-05-12T09:45:39.559Z,55.00
2018-05-12T09:48:05.708Z,53.20
2018-05-12T09:50:32.731Z,52.80
2018-05-12T09:52:59.320Z,54.10
2018-05-12T09:55:25.414Z,55.60
2018-05-12T09:57:51.489Z,53.70
2018-05-12T10:00:17.624Z,53.60
2018-05-12T10:02:45.716Z,52.90
2018-05-12T10:05:13.030Z,53.10
2018-05-12T10:07:44.340Z,53.10
2018-05-12T10:10:10.499Z,51.30
2018-05-12T10:12:37.608Z,50.30
2018-05-12T10:15:03.671Z,51.50
2018-05-12T10:17:30.752Z,48.40
2018-05-12T10:19:56.842Z,50.50
2018-05-12T10:22:24.026Z,47.60
2018-05-12T10:24:50.079Z,48.60
2018-05-12T10:27:16.893Z,46.20
2018-05-12T10:29:43.759Z,44.20
2018-05-12T10:32:10.628Z,43.80
2018-05-12T10:34:36.781Z,43.70
2018-05-12T10:37:03.933Z,43.80
2018-05-12T10:39:29.989Z,46.50
2018-05-12T10:41:56.814Z,47.80
2018-05-12T10:44:22.855Z,47.70
2018-05-12T10:46:49.922Z,45.50
2018-05-12T10:49:16.782Z,41.50
2018-05-12T10:51:42.850Z,41.40
2018-05-12T10:54:08.897Z,42.40
2018-05-12T10:56:35.003Z,42.90
2018-05-12T10:59:03.044Z,41.60
2018-05-12T11:01:29.137Z,38.80
2018-05-12T11:03:56.071Z,45.90
2018-05-12T11:06:22.872Z,46.70
2018-05-12T11:08:48.972Z,46.40
2018-05-12T11:11:15.077Z,45.80
2018-05-12T11:13:41.987Z,42.90
2018-05-12T11:16:09.242Z,42.90
2018-05-12T11:18:35.324Z,44.30
2018-05-12T11:21:02.162Z,39.00
2018-05-12T11:23:28.289Z,38.90
2018-05-12T11:25:54.368Z,40.90
2018-05-12T11:28:22.445Z,40.70
2018-05-12T11:30:51.944Z,44.10
2018-05-12T11:33:18.040Z,42.10
2018-05-12T11:35:47.218Z,39.60
2018-05-12T11:38:13.328Z,39.20
2018-05-12T11:40:40.457Z,41.60
2018-05-12T11:43:08.588Z,40.10
2018-05-12T11:45:34.754Z,39.60
2018-05-12T11:48:01.720Z,40.10
2018-05-12T11:50:32.070Z,43.30
2018-05-12T11:52:58.560Z,43.70
2018-05-12T11:55:25.445Z,41.10
2018-05-12T11:57:51.582Z,40.90
2018-05-12T12:00:17.665Z,40.10
2018-05-12T12:02:44.646Z,36.50
2018-05-12T12:05:10.712Z,36.40
2018-05-12T12:07:36.789Z,38.10
2018-05-12T12:10:03.877Z,39.30
2018-05-12T12:12:29.958Z,39.10
2018-05-12T12:14:58.081Z,38.20
2018-05-12T12:17:24.176Z,38.00
2018-05-12T12:19:50.285Z,38.80
2018-05-12T12:22:16.338Z,36.10
2018-05-12T12:24:44.528Z,37.80
2018-05-12T12:27:10.600Z,36.90
2018-05-12T12:29:37.557Z,37.60
2018-05-12T12:32:03.661Z,37.60
2018-05-12T12:34:31.564Z,36.40
2018-05-12T12:37:01.678Z,36.60
2018-05-12T12:39:27.785Z,38.20
2018-05-12T12:41:54.947Z,37.60
2018-05-12T12:44:21.013Z,40.20
2018-05-12T12:46:47.072Z,37.50
2018-05-12T12:49:13.910Z,39.70
2018-05-12T12:51:41.735Z,37.70
2018-05-12T12:54:07.791Z,37.60
2018-05-12T12:56:34.987Z,39.70
2018-05-12T12:59:02.200Z,43.70
2018-05-12T13:01:30.012Z,38.30
2018-05-12T13:03:56.142Z,39.30
2018-05-12T13:06:22.248Z,39.40
2018-05-12T13:08:50.306Z,39.10
2018-05-12T13:11:18.242Z,37.90
2018-05-12T13:13:44.720Z,38.00
2018-05-12T13:16:12.207Z,38.30
2018-05-12T13:18:38.336Z,38.20
2018-05-12T13:21:04.429Z,39.20
2018-05-12T13:23:32.219Z,38.00
2018-05-12T13:25:59.061Z,37.80
2018-05-12T13:28:25.880Z,38.70
2018-05-12T13:30:52.831Z,39.20
2018-05-12T13:33:18.933Z,39.20
2018-05-12T13:35:46.064Z,40.30
2018-05-12T13:38:12.136Z,37.60
2018-05-12T13:40:38.208Z,39.70
2018-05-12T13:43:04.397Z,40.20
2018-05-12T13:45:31.508Z,38.90
2018-05-12T13:48:00.364Z,40.90
2018-05-12T13:50:26.563Z,40.20
2018-05-12T13:52:52.619Z,38.90
2018-05-12T13:55:19.027Z,40.90
2018-05-12T13:57:45.168Z,39.00
2018-05-12T14:00:12.007Z,40.10
2018-05-12T14:02:38.102Z,40.00
2018-05-12T14:05:04.169Z,38.90
2018-05-12T14:07:30.317Z,39.60
2018-05-12T14:09:56.500Z,40.00
2018-05-12T14:12:22.623Z,40.20
2018-05-12T14:14:50.030Z,39.50
2018-05-12T14:17:16.310Z,39.70
2018-05-12T14:19:42.832Z,38.20
2018-05-12T14:22:09.016Z,40.80
2018-05-12T14:24:35.166Z,41.60
2018-05-12T14:27:03.090Z,43.00
2018-05-12T14:29:30.236Z,43.00
2018-05-12T14:31:57.359Z,43.60
2018-05-12T14:34:26.687Z,44.20
2018-05-12T14:36:52.776Z,41.90
2018-05-12T14:39:19.628Z,43.60
2018-05-12T14:41:46.830Z,43.60
2018-05-12T14:44:13.039Z,44.00
2018-05-12T14:46:40.147Z,45.60
2018-05-12T14:49:06.945Z,48.30
2018-05-12T14:51:34.026Z,48.10
2018-05-12T14:54:00.690Z,49.60
2018-05-12T14:56:26.848Z,46.70
2018-05-12T14:58:52.989Z,45.60
2018-05-12T15:01:19.228Z,48.30
2018-05-12T15:03:48.902Z,46.80
2018-05-12T15:06:15.972Z,46.50
2018-05-12T15:08:42.884Z,48.50
2018-05-12T15:11:09.017Z,48.30
2018-05-12T15:13:35.245Z,47.00
2018-05-12T15:16:02.424Z,47.40
2018-05-12T15:18:32.639Z,47.40
2018-05-12T15:20:58.785Z,47.20
2018-05-12T15:23:24.977Z,49.40
2018-05-12T15:25:51.600Z,48.40
2018-05-12T15:28:18.742Z,50.40
2018-05-12T15:30:45.527Z,46.90
2018-05-12T15:33:11.588Z,46.80
2018-05-12T15:35:38.679Z,45.80
2018-05-12T15:38:04.835Z,45.50
2018-05-12T15:40:31.034Z,49.70
2018-05-12T15:42:57.123Z,51.40
2018-05-12T15:45:23.153Z,53.30
2018-05-12T15:47:51.027Z,53.50
2018-05-12T15:50:17.867Z,55.70
2018-05-12T15:52:44.791Z,57.10
2018-05-12T15:55:11.678Z,59.30
2018-05-12T15:57:37.726Z,58.50
2018-05-12T16:00:03.850Z,59.10
2018-05-12T16:02:29.912Z,57.30
2018-05-12T16:04:55.942Z,58.50
2018-05-12T16:07:22.171Z,57.70
2018-05-12T16:09:49.435Z,59.30
2018-05-12T16:12:16.249Z,59.10
2018-05-12T16:14:42.412Z,59.00
2018-05-12T16:17:09.316Z,58.70
2018-05-12T16:19:35.521Z,58.60
2018-05-12T16:22:02.677Z,58.70
2018-05-12T16:24:28.761Z,59.20
2018-05-12T16:26:55.837Z,59.50
2018-05-12T16:29:21.937Z,59.50
2018-05-12T16:31:53.756Z,60.40
2018-05-12T16:34:21.071Z,60.50
2018-05-12T16:36:49.137Z,60.20
2018-05-12T16:39:15.234Z,60.40
2018-05-12T16:41:41.294Z,61.20
2018-05-12T16:44:07.725Z,60.10
2018-05-12T16:46:33.734Z,61.00
2018-05-12T16:49:03.881Z,61.30
2018-05-12T16:51:31.698Z,61.00
2018-05-12T16:53:58.795Z,61.00
2018-05-12T16:56:32.376Z,61.50
2018-05-12T16:58:59.291Z,60.40
2018-05-12T17:01:26.078Z,61.00
2018-05-12T17:03:57.112Z,60.90
2018-05-12T17:06:24.437Z,60.80
2018-05-12T17:08:51.248Z,61.60
2018-05-12T17:11:18.554Z,61.40
2018-05-12T17:13:45.400Z,64.90
2018-05-12T17:16:12.216Z,64.20
2018-05-12T17:18:38.394Z,64.10
2018-05-12T17:21:04.588Z,62.80
2018-05-12T17:23:31.464Z,62.80
2018-05-12T17:25:58.635Z,62.70
2018-05-12T17:28:24.703Z,63.00
2018-05-12T17:30:51.637Z,63.90
2018-05-12T17:33:20.473Z,63.90
2018-05-12T17:35:47.148Z,63.70
2018-05-12T17:38:14.249Z,64.90
2018-05-12T17:40:40.303Z,64.80
2018-05-12T17:43:07.461Z,63.90
2018-05-12T17:45:41.758Z,64.60
2018-05-12T17:48:07.883Z,64.40
2018-05-12T17:50:33.990Z,64.30
2018-05-12T17:53:01.013Z,65.70
2018-05-12T17:55:27.816Z,66.00
2018-05-12T17:57:54.970Z,65.90
2018-05-12T18:00:21.090Z,65.80
2018-05-12T18:02:47.162Z,66.30
2018-05-12T18:05:13.968Z,66.20
2018-05-12T18:07:41.129Z,66.10
2018-05-12T18:10:07.318Z,67.00
2018-05-12T18:12:33.481Z,66.90
2018-05-12T18:14:59.831Z,67.20
2018-05-12T18:17:25.953Z,68.40
2018-05-12T18:19:51.971Z,68.40
2018-05-12T18:22:19.074Z,69.60
2018-05-12T18:24:45.250Z,69.50
2018-05-12T18:27:12.331Z,69.50
2018-05-12T18:29:39.115Z,71.70
2018-05-12T18:32:05.288Z,71.80
2018-05-12T18:34:32.097Z,71.00
2018-05-12T18:36:58.232Z,70.90
2018-05-12T18:39:24.271Z,71.20
2018-05-12T18:41:51.373Z,72.20
2018-05-12T18:44:17.576Z,73.00
2018-05-12T18:46:44.312Z,73.30
2018-05-12T18:49:11.503Z,74.40
2018-05-12T18:51:37.609Z,74.30
2018-05-12T18:54:03.747Z,75.00
2018-05-12T18:56:29.918Z,74.90
2018-05-12T18:58:56.783Z,75.00
2018-05-12T19:01:23.737Z,75.30
2018-05-12T19:03:50.615Z,75.80
2018-05-12T19:06:16.833Z,75.80
2018-05-12T19:08:43.082Z,75.70
2018-05-12T19:11:09.268Z,76.60
2018-05-12T19:13:35.901Z,76.90
2018-05-12T19:16:04.292Z,76.80
2018-05-12T19:18:31.479Z,77.00
2018-05-12T19:20:59.626Z,77.30
2018-05-12T19:23:25.803Z,77.40
2018-05-12T19:25:51.969Z,77.50
2018-05-12T19:28:18.081Z,78.60
2018-05-12T19:30:44.903Z,79.20
2018-05-12T19:33:11.999Z,79.00
2018-05-12T19:35:39.208Z,79.50
2018-05-12T19:38:06.104Z,79.60
2018-05-12T19:40:33.153Z,79.60
2018-05-12T19:42:59.416Z,81.00
2018-05-12T19:45:25.460Z,80.80
2018-05-12T19:47:52.343Z,81.80
2018-05-12T19:50:18.462Z,81.80
2018-05-12T19:52:44.500Z,82.40
2018-05-12T19:55:10.535Z,82.50
2018-05-12T19:57:36.689Z,83.30
2018-05-12T20:00:02.862Z,83.70
2018-05-12T20:02:28.978Z,84.30
2018-05-12T20:04:59.752Z,85.10
2018-05-12T20:07:25.801Z,85.10
2018-05-12T20:09:53.869Z,85.40
2018-05-12T20:12:20.800Z,87.00
2018-05-12T20:14:47.965Z,86.10
2018-05-12T20:17:17.207Z,86.40
2018-05-12T20:19:46.133Z,85.80
2018-05-12T20:22:13.191Z,85.80
2018-05-12T20:24:39.252Z,87.80
2018-05-12T20:27:05.556Z,88.40
2018-05-12T20:29:31.659Z,89.60
2018-05-12T20:32:00.947Z,89.20
2018-05-12T20:34:27.069Z,89.20
2018-05-12T20:36:53.284Z,90.00
2018-05-12T20:39:19.386Z,90.40
2018-05-12T20:41:45.559Z,90.20
2018-05-12T20:44:12.708Z,90.20
2018-05-12T20:46:39.544Z,90.00
2018-05-12T20:49:05.706Z,90.00
2018-05-12T20:51:31.710Z,90.20
2018-05-12T20:53:57.811Z,91.10
2018-05-12T20:56:23.948Z,91.10
2018-05-12T20:58:52.742Z,91.80
2018-05-12T21:01:18.868Z,91.70
2018-05-12T21:03:47.239Z,92.00
2018-05-12T21:06:13.348Z,91.80
2018-05-12T21:08:41.247Z,91.80
2018-05-12T21:11:08.420Z,91.60
2018-05-12T21:13:37.975Z,92.40
2018-05-12T21:16:05.868Z,92.70
2018-05-12T21:18:33.060Z,92.80
2018-05-12T21:21:01.125Z,92.80
2018-05-12T21:23:29.994Z,91.80
2018-05-12T21:25:59.330Z,91.90
2018-05-12T21:28:25.438Z,92.70
2018-05-12T21:30:51.674Z,92.40
2018-05-12T21:33:17.830Z,92.90
2018-05-12T21:35:44.965Z,93.20
2018-05-12T21:38:11.172Z,93.30
2018-05-12T21:40:37.281Z,92.80
2018-05-12T21:43:03.488Z,93.00
2018-05-12T21:45:29.711Z,93.40
2018-05-12T21:47:58.590Z,94.00
2018-05-12T21:50:26.467Z,93.50
2018-05-12T21:52:53.342Z,92.40
2018-05-12T21:55:21.512Z,92.70
2018-05-12T21:57:47.623Z,93.20
2018-05-12T22:00:13.857Z,93.80
2018-05-12T22:02:41.920Z,93.60
2018-05-12T22:05:08.764Z,93.90
2018-05-12T22:07:35.197Z,93.90
2018-05-12T22:10:03.305Z,93.20
2018-05-12T22:12:29.661Z,94.10
2018-05-12T22:14:55.902Z,94.20
2018-05-12T22:17:22.744Z,93.20
2018-05-12T22:19:48.885Z,93.20
2018-05-12T22:22:15.963Z,94.90
2018-05-12T22:24:43.179Z,94.80
2018-05-12T22:27:11.060Z,94.80
2018-05-12T22:29:38.191Z,94.50
2018-05-12T22:32:05.348Z,94.50
2018-05-12T22:34:33.230Z,94.80
2018-05-12T22:37:00.239Z,94.20
2018-05-12T22:39:27.350Z,94.10
2018-05-12T22:41:53.559Z,95.40
2018-05-12T22:44:20.400Z,95.80
2018-05-12T22:46:49.909Z,95.60
2018-05-12T22:49:17.091Z,96.20
2018-05-12T22:51:43.232Z,96.00
2018-05-12T22:54:09.417Z,95.70
2018-05-12T22:56:37.616Z,95.50
2018-05-12T22:59:03.805Z,96.40
2018-05-12T23:01:30.935Z,95.80
2018-05-12T23:03:57.191Z,95.60
2018-05-12T23:06:23.471Z,95.00
2018-05-12T23:08:51.349Z,95.50
2018-05-12T23:11:17.576Z,95.60
2018-05-12T23:13:43.988Z,96.30
2018-05-12T23:16:11.061Z,95.50
2018-05-12T23:18:37.252Z,95.80
2018-05-12T23:21:03.455Z,95.90
2018-05-12T23:23:31.589Z,96.50
2018-05-12T23:25:58.492Z,96.50
2018-05-12T23:28:26.753Z,96.20
2018-05-12T23:30:54.020Z,96.60
2018-05-12T23:33:21.155Z,96.90
2018-05-12T23:35:48.106Z,97.20
2018-05-12T23:38:14.355Z,97.20
2018-05-12T23:40:42.324Z,97.60
2018-05-12T23:43:09.499Z,97.00
2018-05-12T23:45:35.597Z,96.80
2018-05-12T23:48:01.826Z,97.50
2018-05-12T23:50:27.970Z,97.70
2018-05-12T23:52:54.060Z,98.40
2018-05-12T23:55:21.114Z,98.40
2018-05-12T23:57:48.172Z,98.40
